sensor_id;sensor_type;location;lat;lon;timestamp;pressure;altitude;pressure_sealevel;temperature;humidity
63111;BME280;49201;53.426;10.300;2023-01-04T00:01:04;102189.41;;;6.42;97.61
63111;BME280;49201;53.426;10.300;2023-01-04T00:03:30;102188.44;;;6.54;97.25
63111;BME280;49201;53.426;10.300;2023-01-04T00:06:00;102187.81;;;6.58;96.65
63111;BME280;49201;53.426;10.300;2023-01-04T00:08:27;102180.72;;;6.53;96.82
63111;BME280;49201;53.426;10.300;2023-01-04T00:10:52;102173.88;;;6.52;96.69
63111;BME280;49201;53.426;10.300;2023-01-04T00:13:18;102169.06;;;6.56;97.10
63111;BME280;49201;53.426;10.300;2023-01-04T00:15:43;102167.13;;;6.52;96.08
63111;BME280;49201;53.426;10.300;2023-01-04T00:18:08;102159.75;;;6.57;96.39
63111;BME280;49201;53.426;10.300;2023-01-04T00:20:34;102155.44;;;6.56;95.63
63111;BME280;49201;53.426;10.300;2023-01-04T00:22:59;102153.63;;;6.53;95.84
63111;BME280;49201;53.426;10.300;2023-01-04T00:25:25;102142.81;;;6.57;96.34
63111;BME280;49201;53.426;10.300;2023-01-04T00:27:51;102138.53;;;6.56;96.20
63111;BME280;49201;53.426;10.300;2023-01-04T00:30:17;102115.06;;;6.62;95.52
63111;BME280;49201;53.426;10.300;2023-01-04T00:32:43;102116.06;;;6.64;95.36
63111;BME280;49201;53.426;10.300;2023-01-04T00:35:09;102106.81;;;6.66;95.75
63111;BME280;49201;53.426;10.300;2023-01-04T00:37:34;102094.09;;;6.66;95.18
63111;BME280;49201;53.426;10.300;2023-01-04T00:40:00;102092.44;;;6.66;94.71
63111;BME280;49201;53.426;10.300;2023-01-04T00:42:25;102076.56;;;6.70;94.85
63111;BME280;49201;53.426;10.300;2023-01-04T00:44:51;102067.94;;;6.68;95.13
63111;BME280;49201;53.426;10.300;2023-01-04T00:47:16;102065.47;;;6.70;95.78
63111;BME280;49201;53.426;10.300;2023-01-04T00:49:42;102071.78;;;6.76;95.01
63111;BME280;49201;53.426;10.300;2023-01-04T00:52:07;102085.53;;;6.80;94.24
63111;BME280;49201;53.426;10.300;2023-01-04T00:54:33;102068.44;;;6.77;94.75
63111;BME280;49201;53.426;10.300;2023-01-04T00:56:59;102067.63;;;6.78;94.92
63111;BME280;49201;53.426;10.300;2023-01-04T00:59:26;102062.00;;;6.84;94.19
63111;BME280;49201;53.426;10.300;2023-01-04T01:01:51;102053.53;;;6.83;93.68
63111;BME280;49201;53.426;10.300;2023-01-04T01:04:19;102046.81;;;6.85;94.56
63111;BME280;49201;53.426;10.300;2023-01-04T01:06:45;102031.47;;;6.84;94.51
63111;BME280;49201;53.426;10.300;2023-01-04T01:09:11;102028.13;;;6.85;93.61
63111;BME280;49201;53.426;10.300;2023-01-04T01:11:37;102020.47;;;6.85;94.04
63111;BME280;49201;53.426;10.300;2023-01-04T01:14:05;102014.34;;;6.81;94.14
63111;BME280;49201;53.426;10.300;2023-01-04T01:16:31;102012.63;;;6.80;93.53
63111;BME280;49201;53.426;10.300;2023-01-04T01:18:56;101998.06;;;6.78;93.74
63111;BME280;49201;53.426;10.300;2023-01-04T01:21:24;101999.81;;;6.79;93.57
63111;BME280;49201;53.426;10.300;2023-01-04T01:23:51;102002.25;;;6.77;94.12
63111;BME280;49201;53.426;10.300;2023-01-04T01:26:21;101991.28;;;6.78;93.34
63111;BME280;49201;53.426;10.300;2023-01-04T01:28:47;102000.06;;;6.83;93.80
63111;BME280;49201;53.426;10.300;2023-01-04T01:31:22;102001.63;;;6.81;93.87
63111;BME280;49201;53.426;10.300;2023-01-04T01:33:49;101996.81;;;6.86;93.09
63111;BME280;49201;53.426;10.300;2023-01-04T01:36:17;101995.13;;;6.86;94.01
63111;BME280;49201;53.426;10.300;2023-01-04T01:38:43;101985.09;;;6.89;92.63
63111;BME280;49201;53.426;10.300;2023-01-04T01:41:16;101978.28;;;6.88;92.87
63111;BME280;49201;53.426;10.300;2023-01-04T01:46:24;101977.06;;;6.98;93.00
63111;BME280;49201;53.426;10.300;2023-01-04T01:48:55;101969.19;;;6.93;93.25
63111;BME280;49201;53.426;10.300;2023-01-04T01:51:21;101964.25;;;6.96;92.32
63111;BME280;49201;53.426;10.300;2023-01-04T01:53:52;101964.19;;;6.95;92.64
63111;BME280;49201;53.426;10.300;2023-01-04T01:56:18;101969.50;;;6.99;93.21
63111;BME280;49201;53.426;10.300;2023-01-04T01:58:48;101966.16;;;7.00;92.85
63111;BME280;49201;53.426;10.300;2023-01-04T02:01:14;101942.44;;;7.01;92.53
63111;BME280;49201;53.426;10.300;2023-01-04T02:03:41;101943.50;;;7.05;92.48
63111;BME280;49201;53.426;10.300;2023-01-04T02:06:13;101935.94;;;7.06;91.63
63111;BME280;49201;53.426;10.300;2023-01-04T02:08:42;101922.53;;;7.10;91.08
63111;BME280;49201;53.426;10.300;2023-01-04T02:11:08;101926.59;;;7.07;91.80
63111;BME280;49201;53.426;10.300;2023-01-04T02:13:36;101916.81;;;7.14;90.93
63111;BME280;49201;53.426;10.300;2023-01-04T02:16:39;101915.06;;;7.13;90.74
63111;BME280;49201;53.426;10.300;2023-01-04T02:25:14;101878.84;;;7.19;90.55
63111;BME280;49201;53.426;10.300;2023-01-04T02:31:04;101866.31;;;7.23;89.89
63111;BME280;49201;53.426;10.300;2023-01-04T02:36:39;101849.59;;;7.28;89.01
63111;BME280;49201;53.426;10.300;2023-01-04T02:44:18;101837.66;;;7.27;88.70
63111;BME280;49201;53.426;10.300;2023-01-04T02:47:13;101833.38;;;7.26;89.71
63111;BME280;49201;53.426;10.300;2023-01-04T02:49:39;101813.19;;;7.31;87.98
63111;BME280;49201;53.426;10.300;2023-01-04T02:52:24;101815.09;;;7.35;88.24
63111;BME280;49201;53.426;10.300;2023-01-04T02:54:52;101798.16;;;7.35;88.38
63111;BME280;49201;53.426;10.300;2023-01-04T02:57:45;101782.84;;;7.35;88.03
63111;BME280;49201;53.426;10.300;2023-01-04T03:03:01;101762.09;;;7.45;87.48
63111;BME280;49201;53.426;10.300;2023-01-04T03:06:01;101752.78;;;7.46;87.20
63111;BME280;49201;53.426;10.300;2023-01-04T03:09:20;101747.47;;;7.41;87.62
63111;BME280;49201;53.426;10.300;2023-01-04T03:12:14;101742.38;;;7.41;87.29
63111;BME280;49201;53.426;10.300;2023-01-04T03:17:35;101712.31;;;7.52;86.84
63111;BME280;49201;53.426;10.300;2023-01-04T03:20:02;101704.72;;;7.53;86.15
63111;BME280;49201;53.426;10.300;2023-01-04T03:25:20;101692.19;;;7.58;86.23
63111;BME280;49201;53.426;10.300;2023-01-04T03:28:06;101690.63;;;7.61;85.60
63111;BME280;49201;53.426;10.300;2023-01-04T03:30:58;101687.31;;;7.62;85.94
63111;BME280;49201;53.426;10.300;2023-01-04T03:33:44;101662.59;;;7.61;86.35
63111;BME280;49201;53.426;10.300;2023-01-04T03:36:49;101651.81;;;7.67;85.28
63111;BME280;49201;53.426;10.300;2023-01-04T03:39:29;101641.16;;;7.75;84.52
63111;BME280;49201;53.426;10.300;2023-01-04T03:42:28;101633.44;;;7.74;84.71
63111;BME280;49201;53.426;10.300;2023-01-04T03:45:22;101636.06;;;7.75;85.18
63111;BME280;49201;53.426;10.300;2023-01-04T03:48:19;101619.81;;;7.73;85.13
63111;BME280;49201;53.426;10.300;2023-01-04T03:51:10;101610.56;;;7.75;86.20
63111;BME280;49201;53.426;10.300;2023-01-04T03:56:25;101588.41;;;7.74;86.53
63111;BME280;49201;53.426;10.300;2023-01-04T03:58:52;101590.84;;;7.71;87.34
63111;BME280;49201;53.426;10.300;2023-01-04T04:01:20;101567.91;;;7.71;86.97
63111;BME280;49201;53.426;10.300;2023-01-04T04:03:47;101580.53;;;7.68;88.14
63111;BME280;49201;53.426;10.300;2023-01-04T04:06:31;101566.03;;;7.67;88.09
63111;BME280;49201;53.426;10.300;2023-01-04T04:09:14;101550.53;;;7.63;88.53
63111;BME280;49201;53.426;10.300;2023-01-04T04:11:40;101560.00;;;7.65;87.37
63111;BME280;49201;53.426;10.300;2023-01-04T04:14:05;101543.56;;;7.59;88.89
63111;BME280;49201;53.426;10.300;2023-01-04T04:16:31;101541.75;;;7.56;88.26
63111;BME280;49201;53.426;10.300;2023-01-04T04:18:56;101537.31;;;7.51;90.21
63111;BME280;49201;53.426;10.300;2023-01-04T04:21:22;101538.03;;;7.48;90.57
63111;BME280;49201;53.426;10.300;2023-01-04T04:23:47;101530.00;;;7.39;91.13
63111;BME280;49201;53.426;10.300;2023-01-04T04:26:13;101512.91;;;7.37;91.83
63111;BME280;49201;53.426;10.300;2023-01-04T04:28:39;101526.25;;;7.31;92.57
63111;BME280;49201;53.426;10.300;2023-01-04T04:31:05;101508.28;;;7.28;92.26
63111;BME280;49201;53.426;10.300;2023-01-04T04:33:31;101518.34;;;7.25;94.04
63111;BME280;49201;53.426;10.300;2023-01-04T04:35:56;101507.03;;;7.19;94.13
63111;BME280;49201;53.426;10.300;2023-01-04T04:38:22;101499.97;;;7.13;95.12
63111;BME280;49201;53.426;10.300;2023-01-04T04:40:47;101499.84;;;7.10;95.50
63111;BME280;49201;53.426;10.300;2023-01-04T04:43:33;101498.72;;;7.04;96.78
63111;BME280;49201;53.426;10.300;2023-01-04T04:46:00;101484.31;;;7.04;96.57
63111;BME280;49201;53.426;10.300;2023-01-04T04:48:25;101488.41;;;7.01;97.44
63111;BME280;49201;53.426;10.300;2023-01-04T04:50:51;101481.69;;;7.03;97.62
63111;BME280;49201;53.426;10.300;2023-01-04T04:53:16;101471.31;;;6.98;97.62
63111;BME280;49201;53.426;10.300;2023-01-04T04:55:41;101482.25;;;6.96;98.60
63111;BME280;49201;53.426;10.300;2023-01-04T04:58:07;101467.81;;;6.96;98.62
63111;BME280;49201;53.426;10.300;2023-01-04T05:00:32;101473.63;;;6.92;99.30
63111;BME280;49201;53.426;10.300;2023-01-04T05:02:59;101446.22;;;6.87;100.00
63111;BME280;49201;53.426;10.300;2023-01-04T05:05:25;101446.28;;;6.88;100.00
63111;BME280;49201;53.426;10.300;2023-01-04T05:07:50;101428.38;;;6.87;100.00
63111;BME280;49201;53.426;10.300;2023-01-04T05:10:16;101415.59;;;6.85;100.00
63111;BME280;49201;53.426;10.300;2023-01-04T05:12:41;101412.13;;;6.83;100.00
63111;BME280;49201;53.426;10.300;2023-01-04T05:15:32;101407.88;;;6.84;100.00
63111;BME280;49201;53.426;10.300;2023-01-04T05:17:58;101389.22;;;6.83;100.00
63111;BME280;49201;53.426;10.300;2023-01-04T05:20:24;101381.59;;;6.83;100.00
63111;BME280;49201;53.426;10.300;2023-01-04T05:22:50;101368.03;;;6.84;100.00
63111;BME280;49201;53.426;10.300;2023-01-04T05:25:16;101389.22;;;6.83;100.00
63111;BME280;49201;53.426;10.300;2023-01-04T05:27:42;101369.63;;;6.82;100.00
63111;BME280;49201;53.426;10.300;2023-01-04T05:30:09;101371.34;;;6.82;100.00
63111;BME280;49201;53.426;10.300;2023-01-04T05:32:53;101357.88;;;6.84;100.00
63111;BME280;49201;53.426;10.300;2023-01-04T05:35:19;101352.72;;;6.83;100.00
63111;BME280;49201;53.426;10.300;2023-01-04T05:37:44;101343.50;;;6.86;100.00
63111;BME280;49201;53.426;10.300;2023-01-04T05:40:10;101351.09;;;6.85;100.00
63111;BME280;49201;53.426;10.300;2023-01-04T05:42:35;101343.50;;;6.86;100.00
63111;BME280;49201;53.426;10.300;2023-01-04T05:45:01;101324.03;;;6.87;100.00
63111;BME280;49201;53.426;10.300;2023-01-04T05:47:27;101322.34;;;6.87;100.00
63111;BME280;49201;53.426;10.300;2023-01-04T05:49:53;101311.41;;;6.90;100.00
63111;BME280;49201;53.426;10.300;2023-01-04T05:52:18;101316.50;;;6.90;100.00
63111;BME280;49201;53.426;10.300;2023-01-04T05:54:44;101302.19;;;6.92;100.00
63111;BME280;49201;53.426;10.300;2023-01-04T05:57:10;101297.16;;;6.93;100.00
63111;BME280;49201;53.426;10.300;2023-01-04T05:59:36;101292.06;;;6.93;100.00
63111;BME280;49201;53.426;10.300;2023-01-04T06:02:01;101284.50;;;6.95;100.00
63111;BME280;49201;53.426;10.300;2023-01-04T06:04:27;101284.50;;;6.95;100.00
63111;BME280;49201;53.426;10.300;2023-01-04T06:06:53;101282.81;;;6.95;100.00
63111;BME280;49201;53.426;10.300;2023-01-04T06:09:18;101275.25;;;6.97;100.00
63111;BME280;49201;53.426;10.300;2023-01-04T06:11:44;101271.94;;;6.99;100.00
63111;BME280;49201;53.426;10.300;2023-01-04T06:14:09;101264.44;;;7.02;100.00
63111;BME280;49201;53.426;10.300;2023-01-04T06:16:35;101263.63;;;7.03;100.00
63111;BME280;49201;53.426;10.300;2023-01-04T06:19:01;101261.16;;;7.05;100.00
63111;BME280;49201;53.426;10.300;2023-01-04T06:21:26;101253.63;;;7.08;100.00
63111;BME280;49201;53.426;10.300;2023-01-04T06:23:52;101249.47;;;7.10;100.00
63111;BME280;49201;53.426;10.300;2023-01-04T06:26:18;101249.56;;;7.13;100.00
63111;BME280;49201;53.426;10.300;2023-01-04T06:28:43;101240.34;;;7.15;100.00
63111;BME280;49201;53.426;10.300;2023-01-04T06:31:10;101231.06;;;7.17;100.00
63111;BME280;49201;53.426;10.300;2023-01-04T06:33:36;101226.97;;;7.20;100.00
63111;BME280;49201;53.426;10.300;2023-01-04T06:36:02;101224.78;;;7.29;100.00
63111;BME280;49201;53.426;10.300;2023-01-04T06:38:29;101218.19;;;7.34;100.00
63111;BME280;49201;53.426;10.300;2023-01-04T06:40:54;101215.66;;;7.36;100.00
63111;BME280;49201;53.426;10.300;2023-01-04T06:43:20;101209.09;;;7.41;100.00
63111;BME280;49201;53.426;10.300;2023-01-04T06:45:45;101202.53;;;7.47;100.00
63111;BME280;49201;53.426;10.300;2023-01-04T06:48:12;101204.44;;;7.53;100.00
63111;BME280;49201;53.426;10.300;2023-01-04T06:50:37;101201.31;;;7.60;100.00
63111;BME280;49201;53.426;10.300;2023-01-04T06:53:02;101186.94;;;7.62;100.00
63111;BME280;49201;53.426;10.300;2023-01-04T06:55:28;101176.13;;;7.67;100.00
63111;BME280;49201;53.426;10.300;2023-01-04T06:57:56;101180.53;;;7.71;100.00
63111;BME280;49201;53.426;10.300;2023-01-04T07:00:22;101175.75;;;7.80;100.00
63111;BME280;49201;53.426;10.300;2023-01-04T07:02:48;101167.22;;;7.80;100.00
63111;BME280;49201;53.426;10.300;2023-01-04T07:05:14;101164.81;;;7.84;100.00
63111;BME280;49201;53.426;10.300;2023-01-04T07:07:39;101155.63;;;7.88;100.00
63111;BME280;49201;53.426;10.300;2023-01-04T07:10:05;101146.38;;;7.91;100.00
63111;BME280;49201;53.426;10.300;2023-01-04T07:12:31;101154.91;;;7.92;100.00
63111;BME280;49201;53.426;10.300;2023-01-04T07:14:57;101146.66;;;7.99;100.00
63111;BME280;49201;53.426;10.300;2023-01-04T07:17:23;101136.41;;;7.97;100.00
63111;BME280;49201;53.426;10.300;2023-01-04T07:19:48;101134.84;;;8.01;100.00
63111;BME280;49201;53.426;10.300;2023-01-04T07:22:14;101132.31;;;8.02;100.00
63111;BME280;49201;53.426;10.300;2023-01-04T07:24:40;101134.03;;;8.02;100.00
63111;BME280;49201;53.426;10.300;2023-01-04T07:27:05;101119.63;;;8.04;100.00
63111;BME280;49201;53.426;10.300;2023-01-04T07:29:31;101120.63;;;8.09;100.00
63111;BME280;49201;53.426;10.300;2023-01-04T07:31:56;101115.59;;;8.10;100.00
63111;BME280;49201;53.426;10.300;2023-01-04T07:34:23;101101.19;;;8.11;100.00
63111;BME280;49201;53.426;10.300;2023-01-04T07:36:50;101098.94;;;8.20;100.00
63111;BME280;49201;53.426;10.300;2023-01-04T07:39:17;101104.97;;;8.22;100.00
63111;BME280;49201;53.426;10.300;2023-01-04T07:41:43;101102.41;;;8.22;100.00
63111;BME280;49201;53.426;10.300;2023-01-04T07:44:09;101097.47;;;8.26;100.00
63111;BME280;49201;53.426;10.300;2023-01-04T07:46:35;101101.84;;;8.30;100.00
63111;BME280;49201;53.426;10.300;2023-01-04T07:49:01;101093.53;;;8.36;100.00
63111;BME280;49201;53.426;10.300;2023-01-04T07:51:29;101088.59;;;8.40;100.00
63111;BME280;49201;53.426;10.300;2023-01-04T07:53:54;101098.03;;;8.43;100.00
63111;BME280;49201;53.426;10.300;2023-01-04T07:56:19;101087.03;;;8.45;100.00
63111;BME280;49201;53.426;10.300;2023-01-04T07:58:45;101081.25;;;8.51;100.00
63111;BME280;49201;53.426;10.300;2023-01-04T08:01:13;101083.19;;;8.58;100.00
63111;BME280;49201;53.426;10.300;2023-01-04T08:03:39;101080.69;;;8.59;100.00
63111;BME280;49201;53.426;10.300;2023-01-04T08:06:07;101077.34;;;8.62;100.00
63111;BME280;49201;53.426;10.300;2023-01-04T08:08:33;101077.47;;;8.66;100.00
63111;BME280;49201;53.426;10.300;2023-01-04T08:11:03;101075.13;;;8.72;100.00
63111;BME280;49201;53.426;10.300;2023-01-04T08:13:28;101077.00;;;8.78;100.00
63111;BME280;49201;53.426;10.300;2023-01-04T08:15:54;101077.94;;;8.81;100.00
63111;BME280;49201;53.426;10.300;2023-01-04T08:18:20;101074.75;;;8.88;100.00
63111;BME280;49201;53.426;10.300;2023-01-04T08:20:46;101079.13;;;8.92;100.00
63111;BME280;49201;53.426;10.300;2023-01-04T08:23:11;101075.88;;;8.96;100.00
63111;BME280;49201;53.426;10.300;2023-01-04T08:25:37;101077.72;;;9.02;100.00
63111;BME280;49201;53.426;10.300;2023-01-04T08:28:02;101080.34;;;9.05;100.00
63111;BME280;49201;53.426;10.300;2023-01-04T08:30:28;101077.06;;;9.09;100.00
63111;BME280;49201;53.426;10.300;2023-01-04T08:32:53;101078.91;;;9.13;100.00
63111;BME280;49201;53.426;10.300;2023-01-04T08:35:19;101078.13;;;9.15;100.00
63111;BME280;49201;53.426;10.300;2023-01-04T08:37:45;101058.78;;;9.23;100.00
63111;BME280;49201;53.426;10.300;2023-01-04T08:40:10;101070.03;;;9.30;100.00
63111;BME280;49201;53.426;10.300;2023-01-04T08:42:36;101055.66;;;9.33;100.00
63111;BME280;49201;53.426;10.300;2023-01-04T08:45:02;101053.97;;;9.35;100.00
63111;BME280;49201;53.426;10.300;2023-01-04T08:47:28;101052.41;;;9.40;100.00
63111;BME280;49201;53.426;10.300;2023-01-04T08:49:54;101049.06;;;9.43;100.00
63111;BME280;49201;53.426;10.300;2023-01-04T08:52:20;101046.66;;;9.47;100.00
63111;BME280;49201;53.426;10.300;2023-01-04T08:54:46;101047.59;;;9.51;100.00
63111;BME280;49201;53.426;10.300;2023-01-04T08:57:11;101039.97;;;9.52;100.00
63111;BME280;49201;53.426;10.300;2023-01-04T08:59:37;101043.44;;;9.54;100.00
63111;BME280;49201;53.426;10.300;2023-01-04T09:02:02;101047.75;;;9.57;100.00
63111;BME280;49201;53.426;10.300;2023-01-04T09:04:28;101037.56;;;9.58;100.00
63111;BME280;49201;53.426;10.300;2023-01-04T09:06:53;101038.50;;;9.62;100.00
63111;BME280;49201;53.426;10.300;2023-01-04T09:09:19;101039.53;;;9.67;100.00
63111;BME280;49201;53.426;10.300;2023-01-04T09:11:44;101033.69;;;9.72;100.00
63111;BME280;49201;53.426;10.300;2023-01-04T09:14:09;101021.78;;;9.73;100.00
63111;BME280;49201;53.426;10.300;2023-01-04T09:16:36;101029.59;;;9.79;100.00
63111;BME280;49201;53.426;10.300;2023-01-04T09:19:02;101029.50;;;9.76;100.00
63111;BME280;49201;53.426;10.300;2023-01-04T09:21:28;101027.97;;;9.82;100.00
63111;BME280;49201;53.426;10.300;2023-01-04T09:23:55;101031.50;;;9.87;100.00
63111;BME280;49201;53.426;10.300;2023-01-04T09:26:21;101019.69;;;9.91;100.00
63111;BME280;49201;53.426;10.300;2023-01-04T09:28:52;101019.88;;;9.98;100.00
63111;BME280;49201;53.426;10.300;2023-01-04T09:31:20;101014.13;;;10.07;100.00
63111;BME280;49201;53.426;10.300;2023-01-04T09:33:46;101010.72;;;10.08;100.00
63111;BME280;49201;53.426;10.300;2023-01-04T09:36:13;101006.56;;;10.11;100.00
63111;BME280;49201;53.426;10.300;2023-01-04T09:38:39;101002.47;;;10.19;100.00
63111;BME280;49201;53.426;10.300;2023-01-04T09:41:25;100993.97;;;10.19;100.00
63111;BME280;49201;53.426;10.300;2023-01-04T09:43:56;101006.75;;;10.19;100.00
63111;BME280;49201;53.426;10.300;2023-01-04T09:46:25;100998.28;;;10.21;100.00
63111;BME280;49201;53.426;10.300;2023-01-04T09:48:58;100997.41;;;10.21;100.00
63111;BME280;49201;53.426;10.300;2023-01-04T09:51:31;100994.88;;;10.22;100.00
63111;BME280;49201;53.426;10.300;2023-01-04T09:54:11;101000.94;;;10.24;100.00
63111;BME280;49201;53.426;10.300;2023-01-04T09:56:54;100987.22;;;10.22;100.00
63111;BME280;49201;53.426;10.300;2023-01-04T09:59:28;100986.34;;;10.22;100.00
63111;BME280;49201;53.426;10.300;2023-01-04T10:02:07;100971.03;;;10.23;100.00
63111;BME280;49201;53.426;10.300;2023-01-04T10:04:47;100986.38;;;10.23;100.00
63111;BME280;49201;53.426;10.300;2023-01-04T10:07:40;100965.09;;;10.24;100.00
63111;BME280;49201;53.426;10.300;2023-01-04T10:10:06;100974.53;;;10.27;100.00
63111;BME280;49201;53.426;10.300;2023-01-04T10:13:06;100967.78;;;10.30;100.00
63111;BME280;49201;53.426;10.300;2023-01-04T10:15:50;100962.69;;;10.32;100.00
63111;BME280;49201;53.426;10.300;2023-01-04T10:26:23;100943.94;;;10.33;100.00
63111;BME280;49201;53.426;10.300;2023-01-04T10:31:39;100949.81;;;10.29;100.00
63111;BME280;49201;53.426;10.300;2023-01-04T10:34:27;100944.75;;;10.30;100.00
63111;BME280;49201;53.426;10.300;2023-01-04T10:36:58;100939.69;;;10.33;100.00
63111;BME280;49201;53.426;10.300;2023-01-04T10:39:27;100947.41;;;10.35;100.00
63111;BME280;49201;53.426;10.300;2023-01-04T10:41:56;100928.63;;;10.36;100.00
63111;BME280;49201;53.426;10.300;2023-01-04T10:48:00;100929.72;;;10.45;100.00
63111;BME280;49201;53.426;10.300;2023-01-04T10:52:59;100917.13;;;10.56;100.00
63111;BME280;49201;53.426;10.300;2023-01-04T10:58:28;100919.78;;;10.60;100.00
63111;BME280;49201;53.426;10.300;2023-01-04T11:01:03;100902.72;;;10.61;100.00
63111;BME280;49201;53.426;10.300;2023-01-04T11:03:49;100902.78;;;10.62;100.00
63111;BME280;49201;53.426;10.300;2023-01-04T11:09:20;100895.06;;;10.61;100.00
63111;BME280;49201;53.426;10.300;2023-01-04T11:11:48;100895.13;;;10.64;100.00
63111;BME280;49201;53.426;10.300;2023-01-04T11:14:15;100882.34;;;10.67;100.00
63111;BME280;49201;53.426;10.300;2023-01-04T11:16:45;100880.72;;;10.69;100.00
63111;BME280;49201;53.426;10.300;2023-01-04T11:19:13;100887.50;;;10.68;100.00
63111;BME280;49201;53.426;10.300;2023-01-04T11:21:43;100878.16;;;10.69;100.00
63111;BME280;49201;53.426;10.300;2023-01-04T11:24:12;100869.59;;;10.68;100.00
63111;BME280;49201;53.426;10.300;2023-01-04T11:26:41;100867.91;;;10.69;100.00
63111;BME280;49201;53.426;10.300;2023-01-04T11:31:49;100875.59;;;10.70;100.00
63111;BME280;49201;53.426;10.300;2023-01-04T11:34:18;100868.81;;;10.72;100.00
63111;BME280;49201;53.426;10.300;2023-01-04T11:36:46;100866.31;;;10.75;100.00
63111;BME280;49201;53.426;10.300;2023-01-04T11:39:23;100857.00;;;10.79;100.00
63111;BME280;49201;53.426;10.300;2023-01-04T11:44:22;100855.41;;;10.85;100.00
63111;BME280;49201;53.426;10.300;2023-01-04T11:47:08;100851.13;;;10.86;100.00
63111;BME280;49201;53.426;10.300;2023-01-04T11:49:40;100859.69;;;10.86;100.00
63111;BME280;49201;53.426;10.300;2023-01-04T11:54:51;100847.72;;;10.85;100.00
63111;BME280;49201;53.426;10.300;2023-01-04T11:57:18;100841.81;;;10.89;100.00
63111;BME280;49201;53.426;10.300;2023-01-04T11:59:44;100849.47;;;10.88;100.00
63111;BME280;49201;53.426;10.300;2023-01-04T12:02:20;100843.53;;;10.90;100.00
63111;BME280;49201;53.426;10.300;2023-01-04T12:04:48;100846.16;;;10.95;100.00
63111;BME280;49201;53.426;10.300;2023-01-04T12:07:32;100832.56;;;10.96;100.00
63111;BME280;49201;53.426;10.300;2023-01-04T12:09:59;100835.13;;;10.97;100.00
63111;BME280;49201;53.426;10.300;2023-01-04T12:12:32;100830.88;;;10.98;100.00
63111;BME280;49201;53.426;10.300;2023-01-04T12:15:05;100842.84;;;10.99;100.00
63111;BME280;49201;53.426;10.300;2023-01-04T12:20:17;100831.84;;;11.04;100.00
63111;BME280;49201;53.426;10.300;2023-01-04T12:22:42;100831.81;;;11.03;100.00
63111;BME280;49201;53.426;10.300;2023-01-04T12:25:38;100820.69;;;11.01;100.00
63111;BME280;49201;53.426;10.300;2023-01-04T12:28:12;100820.69;;;11.02;100.00
63111;BME280;49201;53.426;10.300;2023-01-04T12:30:51;100821.63;;;11.07;100.00
63111;BME280;49201;53.426;10.300;2023-01-04T12:41:17;100819.31;;;11.21;100.00
63111;BME280;49201;53.426;10.300;2023-01-04T12:43:43;100810.72;;;11.19;100.00
63111;BME280;49201;53.426;10.300;2023-01-04T12:54:51;100807.34;;;11.23;100.00
63111;BME280;49201;53.426;10.300;2023-01-04T12:57:44;100809.91;;;11.23;100.00
63111;BME280;49201;53.426;10.300;2023-01-04T13:00:14;100803.97;;;11.25;100.00
63111;BME280;49201;53.426;10.300;2023-01-04T13:02:43;100804.91;;;11.29;100.00
63111;BME280;49201;53.426;10.300;2023-01-04T13:07:57;100799.75;;;11.27;100.00
63111;BME280;49201;53.426;10.300;2023-01-04T13:10:33;100795.47;;;11.28;100.00
63111;BME280;49201;53.426;10.300;2023-01-04T13:18:36;100786.00;;;11.22;100.00
63111;BME280;49201;53.426;10.300;2023-01-04T13:23:33;100770.56;;;11.19;100.00
63111;BME280;49201;53.426;10.300;2023-01-04T13:29:13;100785.06;;;11.19;100.00
63111;BME280;49201;53.426;10.300;2023-01-04T13:32:01;100790.19;;;11.19;100.00
63111;BME280;49201;53.426;10.300;2023-01-04T13:34:34;100783.44;;;11.22;100.00
63111;BME280;49201;53.426;10.300;2023-01-04T13:39:43;100774.06;;;11.24;100.00
63111;BME280;49201;53.426;10.300;2023-01-04T13:47:22;100755.25;;;11.22;100.00
63111;BME280;49201;53.426;10.300;2023-01-04T13:49:48;100763.78;;;11.21;100.00
63111;BME280;49201;53.426;10.300;2023-01-04T13:52:26;100755.25;;;11.22;100.00
63111;BME280;49201;53.426;10.300;2023-01-04T13:55:20;100755.25;;;11.22;100.00
63111;BME280;49201;53.426;10.300;2023-01-04T13:58:06;100744.13;;;11.22;100.00
63111;BME280;49201;53.426;10.300;2023-01-04T14:00:35;100752.69;;;11.22;100.00
63111;BME280;49201;53.426;10.300;2023-01-04T14:05:35;100740.72;;;11.21;100.00
63111;BME280;49201;53.426;10.300;2023-01-04T14:08:03;100737.31;;;11.22;100.00
63111;BME280;49201;53.426;10.300;2023-01-04T14:10:34;100724.47;;;11.21;100.00
63111;BME280;49201;53.426;10.300;2023-01-04T14:13:00;100731.31;;;11.22;100.00
63111;BME280;49201;53.426;10.300;2023-01-04T14:15:27;100712.53;;;11.21;100.00
63111;BME280;49201;53.426;10.300;2023-01-04T14:17:55;100709.97;;;11.23;100.00
63111;BME280;49201;53.426;10.300;2023-01-04T14:22:58;100711.66;;;11.21;100.00
63111;BME280;49201;53.426;10.300;2023-01-04T14:30:42;100694.53;;;11.18;100.00
63111;BME280;49201;53.426;10.300;2023-01-04T14:33:14;100693.63;;;11.15;100.00
63111;BME280;49201;53.426;10.300;2023-01-04T14:35:41;100695.31;;;11.14;100.00
63111;BME280;49201;53.426;10.300;2023-01-04T14:38:16;100693.56;;;11.10;100.00
63111;BME280;49201;53.426;10.300;2023-01-04T14:40:43;100687.53;;;11.07;100.00
63111;BME280;49201;53.426;10.300;2023-01-04T14:43:49;100685.75;;;11.03;100.00
63111;BME280;49201;53.426;10.300;2023-01-04T14:46:13;100693.38;;;10.97;100.00
63111;BME280;49201;53.426;10.300;2023-01-04T14:48:39;100685.69;;;10.97;100.00